createdAt,value
2022-10-08T00:00:38.454Z,1.74
2022-10-08T00:05:44.738Z,1.64
2022-10-08T00:10:50.991Z,1.54
2022-10-08T00:15:57.370Z,1.05
2022-10-08T00:21:03.679Z,1.40
2022-10-08T00:26:09.921Z,1.37
2022-10-08T00:31:16.253Z,1.18
2022-10-08T00:36:22.393Z,1.83
2022-10-08T00:41:28.740Z,1.25
2022-10-08T00:46:35.087Z,1.39
2022-10-08T00:51:41.497Z,1.07
2022-10-08T00:56:47.822Z,2.02
2022-10-08T01:01:54.221Z,1.08
2022-10-08T01:07:00.524Z,1.53
2022-10-08T01:12:06.804Z,1.11
2022-10-08T01:17:13.052Z,1.22
2022-10-08T01:22:19.292Z,1.18
2022-10-08T01:27:25.567Z,1.18
2022-10-08T01:32:31.816Z,1.29
2022-10-08T01:37:38.057Z,1.50
2022-10-08T01:42:44.603Z,1.75
2022-10-08T01:47:50.695Z,1.29
2022-10-08T01:52:57.044Z,1.51
2022-10-08T01:58:03.260Z,1.47
2022-10-08T02:03:09.688Z,1.53
2022-10-08T02:08:15.985Z,1.40
2022-10-08T02:13:22.316Z,2.00
2022-10-08T02:18:28.539Z,1.34
2022-10-08T02:23:34.820Z,1.98
2022-10-08T02:28:41.165Z,2.20
2022-10-08T02:33:47.352Z,1.32
2022-10-08T02:38:53.534Z,1.71
2022-10-08T02:43:59.819Z,1.77
2022-10-08T02:49:06.145Z,1.47
2022-10-08T02:54:12.348Z,2.34
2022-10-08T02:59:18.548Z,1.47
2022-10-08T03:04:24.807Z,1.58
2022-10-08T03:09:31.026Z,1.70
2022-10-08T03:14:37.302Z,1.67
2022-10-08T03:19:43.610Z,1.58
2022-10-08T03:24:53.716Z,1.50
2022-10-08T03:29:55.609Z,1.35
2022-10-08T03:35:01.881Z,2.11
2022-10-08T03:40:08.275Z,2.29
2022-10-08T03:45:14.545Z,1.99
2022-10-08T03:50:20.854Z,2.11
2022-10-08T03:55:27.166Z,1.52
2022-10-08T04:00:33.408Z,1.65
2022-10-08T04:05:39.781Z,2.40
2022-10-08T04:10:45.945Z,2.42
2022-10-08T04:15:54.091Z,1.58
2022-10-08T04:21:00.355Z,2.38
2022-10-08T04:26:07.125Z,1.58
2022-10-08T04:31:13.368Z,1.58
2022-10-08T04:36:19.617Z,1.33
2022-10-08T04:41:26.102Z,1.89
2022-10-08T04:46:32.412Z,1.72
2022-10-08T04:51:38.630Z,1.46
2022-10-08T04:56:46.284Z,1.58
2022-10-08T05:01:52.621Z,1.61
2022-10-08T05:06:58.927Z,2.08
2022-10-08T05:12:05.228Z,1.37
2022-10-08T05:17:11.595Z,1.52
2022-10-08T05:22:17.829Z,1.53
2022-10-08T05:27:25.095Z,2.30
2022-10-08T05:32:32.353Z,1.57
2022-10-08T05:37:38.630Z,2.57
2022-10-08T05:42:45.110Z,1.83
2022-10-08T05:47:51.150Z,1.91
2022-10-08T05:52:57.439Z,1.91
2022-10-08T05:58:03.831Z,1.51
2022-10-08T06:03:10.410Z,1.25
2022-10-08T06:08:16.589Z,1.46
2022-10-08T06:13:23.051Z,1.84
2022-10-08T06:18:29.395Z,1.74
2022-10-08T06:23:35.651Z,2.47
2022-10-08T06:28:42.225Z,1.70
2022-10-08T06:33:48.345Z,1.62
2022-10-08T06:38:54.608Z,1.52
2022-10-08T06:44:00.846Z,1.79
2022-10-08T06:49:07.101Z,2.03
2022-10-08T06:54:13.304Z,2.85
2022-10-08T06:59:19.669Z,3.15
2022-10-08T07:04:25.918Z,2.94
2022-10-08T07:09:32.105Z,2.04
2022-10-08T07:14:39.066Z,1.90
2022-10-08T07:19:45.288Z,1.85
2022-10-08T07:24:51.591Z,2.44
2022-10-08T07:29:58.094Z,2.51
2022-10-08T07:35:04.367Z,3.35
2022-10-08T07:40:10.654Z,1.91
2022-10-08T07:45:17.175Z,2.14
2022-10-08T07:50:23.606Z,2.12
2022-10-08T07:55:29.816Z,2.23
2022-10-08T08:00:36.159Z,2.03
2022-10-08T08:05:42.395Z,2.31
2022-10-08T08:10:48.660Z,4.49
2022-10-08T08:15:54.921Z,4.07
2022-10-08T08:21:01.216Z,3.07
2022-10-08T08:26:07.445Z,2.74
2022-10-08T08:31:13.715Z,4.65
2022-10-08T08:36:19.920Z,4.28
2022-10-08T08:41:26.181Z,3.24
2022-10-08T08:46:32.424Z,5.26
2022-10-08T08:51:39.406Z,5.39
2022-10-08T08:56:45.638Z,3.43
2022-10-08T09:01:51.990Z,4.96
2022-10-08T09:06:58.310Z,3.48
2022-10-08T09:12:04.877Z,4.91
2022-10-08T09:17:11.155Z,3.04
2022-10-08T09:22:17.433Z,3.30
2022-10-08T09:27:23.761Z,2.72
2022-10-08T09:32:30.059Z,3.97
2022-10-08T09:37:36.440Z,3.55
2022-10-08T09:42:42.685Z,2.14
2022-10-08T09:47:49.039Z,3.22
2022-10-08T09:52:55.305Z,1.90
2022-10-08T09:58:02.363Z,1.67
2022-10-08T10:03:08.633Z,1.67
2022-10-08T10:08:14.915Z,1.65
2022-10-08T10:13:21.678Z,1.55
2022-10-08T10:18:27.982Z,1.47
2022-10-08T10:23:34.310Z,1.89
2022-10-08T10:28:40.755Z,1.50
2022-10-08T10:33:46.969Z,1.12
2022-10-08T10:38:53.240Z,1.32
2022-10-08T10:43:59.458Z,1.37
2022-10-08T10:49:07.314Z,1.88
2022-10-08T10:54:12.674Z,1.23
2022-10-08T10:59:18.932Z,1.89
2022-10-08T11:04:25.595Z,1.80
2022-10-08T11:09:31.780Z,1.18
2022-10-08T11:14:39.527Z,1.86
2022-10-08T11:19:45.880Z,2.06
2022-10-08T11:24:52.367Z,1.08
2022-10-08T11:29:58.636Z,1.13
2022-10-08T11:35:07.334Z,1.21
2022-10-08T11:40:13.360Z,1.45
2022-10-08T11:45:19.770Z,1.22
2022-10-08T11:50:26.086Z,1.76
2022-10-08T11:55:32.459Z,1.19
2022-10-08T12:00:38.742Z,0.98
2022-10-08T12:05:49.476Z,1.14
2022-10-08T12:10:51.800Z,1.08
2022-10-08T12:15:59.371Z,0.82
2022-10-08T12:21:05.731Z,1.50
2022-10-08T12:26:12.096Z,1.48
2022-10-08T12:31:18.367Z,1.57
2022-10-08T12:36:26.609Z,1.05
2022-10-08T12:41:31.877Z,0.84
2022-10-08T12:46:38.214Z,1.47
2022-10-08T12:51:44.348Z,2.34
2022-10-08T12:56:50.563Z,1.17
2022-10-08T13:01:56.801Z,1.18
2022-10-08T13:07:03.064Z,1.41
2022-10-08T13:12:09.623Z,1.67
2022-10-08T13:17:15.908Z,1.08
2022-10-08T13:22:22.232Z,1.18
2022-10-08T13:27:29.595Z,1.59
2022-10-08T13:32:36.876Z,0.64
2022-10-08T13:37:43.124Z,0.62
2022-10-08T13:42:49.297Z,0.89
2022-10-08T13:47:55.679Z,0.69
2022-10-08T13:53:01.926Z,0.75
2022-10-08T13:58:08.180Z,0.93
2022-10-08T14:03:14.417Z,0.80
2022-10-08T14:08:20.724Z,0.90
2022-10-08T14:13:30.015Z,0.73
2022-10-08T14:18:36.851Z,0.85
2022-10-08T14:23:43.044Z,0.61
2022-10-08T14:28:49.379Z,0.66
2022-10-08T14:33:55.628Z,0.76
2022-10-08T14:39:03.000Z,1.25
2022-10-08T14:44:11.632Z,0.92
2022-10-08T14:49:17.920Z,0.63
2022-10-08T14:54:24.194Z,0.59
2022-10-08T14:59:30.439Z,1.26
2022-10-08T15:04:36.745Z,0.68
2022-10-08T15:09:43.007Z,0.62
2022-10-08T15:14:49.253Z,1.29
2022-10-08T15:19:56.750Z,0.84
2022-10-08T15:25:03.856Z,0.67
2022-10-08T15:30:10.175Z,0.72
2022-10-08T15:35:16.362Z,1.20
2022-10-08T15:40:22.737Z,1.01
2022-10-08T15:45:29.162Z,0.98
2022-10-08T15:50:36.546Z,1.18
2022-10-08T15:55:43.028Z,0.96
2022-10-08T16:00:49.313Z,1.18
2022-10-08T16:05:56.112Z,0.74
2022-10-08T16:11:02.426Z,0.97
2022-10-08T16:16:14.012Z,0.90
2022-10-08T16:21:14.511Z,0.93
2022-10-08T16:26:20.741Z,0.73
2022-10-08T16:31:27.033Z,1.43
2022-10-08T16:36:33.349Z,4.49
2022-10-08T16:41:39.725Z,4.21
2022-10-08T16:46:45.972Z,2.91
2022-10-08T16:51:52.295Z,3.27
2022-10-08T16:56:58.535Z,1.44
2022-10-08T17:02:04.796Z,2.01
2022-10-08T17:07:12.038Z,1.02
2022-10-08T17:12:21.691Z,1.98
2022-10-08T17:17:23.990Z,1.41
2022-10-08T17:22:30.227Z,2.49
2022-10-08T17:27:36.520Z,1.21
2022-10-08T17:32:44.057Z,1.52
2022-10-08T17:37:50.262Z,2.29
2022-10-08T17:42:56.506Z,2.38
2022-10-08T17:48:02.711Z,1.76
2022-10-08T17:53:08.987Z,2.40
2022-10-08T17:58:15.166Z,1.05
2022-10-08T18:03:21.460Z,1.34
2022-10-08T18:08:27.686Z,1.46
2022-10-08T18:13:33.991Z,1.15
2022-10-08T18:18:40.223Z,0.96
2022-10-08T18:23:46.517Z,0.84
2022-10-08T18:28:54.005Z,0.89
2022-10-08T18:34:00.303Z,1.16
2022-10-08T18:39:09.528Z,1.37
2022-10-08T18:44:15.744Z,0.88
2022-10-08T18:49:22.032Z,2.40
2022-10-08T18:54:28.366Z,1.67
2022-10-08T18:59:34.650Z,1.63
2022-10-08T19:04:40.864Z,0.99
2022-10-08T19:09:47.043Z,1.62
2022-10-08T19:14:53.336Z,1.48
2022-10-08T19:19:59.570Z,1.64
2022-10-08T19:25:05.871Z,1.34
2022-10-08T19:30:12.146Z,1.17
2022-10-08T19:35:18.400Z,1.20
2022-10-08T19:40:24.738Z,1.42
2022-10-08T19:45:31.032Z,1.92
2022-10-08T19:50:37.362Z,1.78
2022-10-08T19:55:43.548Z,1.58
2022-10-08T20:00:49.909Z,1.92
2022-10-08T20:05:56.179Z,1.48
2022-10-08T20:11:02.803Z,2.27
2022-10-08T20:16:12.912Z,1.49
2022-10-08T20:21:09.379Z,1.67
2022-10-08T20:26:15.648Z,1.68
2022-10-08T20:31:21.988Z,3.91
2022-10-08T20:36:28.217Z,1.78
2022-10-08T20:41:34.561Z,2.62
2022-10-08T20:46:40.911Z,1.70
2022-10-08T20:51:47.180Z,2.53
2022-10-08T20:56:53.406Z,2.51
2022-10-08T21:01:59.692Z,1.65
2022-10-08T21:07:05.855Z,1.92
2022-10-08T21:12:12.116Z,2.42
2022-10-08T21:17:18.515Z,2.53
2022-10-08T21:22:24.774Z,2.14
2022-10-08T21:27:31.456Z,2.34
2022-10-08T21:32:37.765Z,2.25
2022-10-08T21:37:44.031Z,3.91
2022-10-08T21:42:50.644Z,2.71
2022-10-08T21:47:56.122Z,2.67
2022-10-08T21:53:02.498Z,3.50
2022-10-08T21:58:08.813Z,4.09
2022-10-08T22:03:15.207Z,2.73
2022-10-08T22:08:21.496Z,2.69
2022-10-08T22:13:27.753Z,2.59
2022-10-08T22:18:33.993Z,3.62
2022-10-08T22:23:41.015Z,2.51
2022-10-08T22:28:47.974Z,2.51
2022-10-08T22:33:58.145Z,2.44
2022-10-08T22:39:04.054Z,2.52
2022-10-08T22:44:10.412Z,2.67
2022-10-08T22:49:16.669Z,4.70
2022-10-08T22:54:22.916Z,3.06
2022-10-08T22:59:29.129Z,4.73
2022-10-08T23:04:35.436Z,4.53
2022-10-08T23:09:45.454Z,2.93
2022-10-08T23:14:51.385Z,3.31
2022-10-08T23:19:58.242Z,2.96
2022-10-08T23:25:04.493Z,3.09
2022-10-08T23:30:31.278Z,2.83
2022-10-08T23:35:17.133Z,2.74
2022-10-08T23:40:23.478Z,3.19
2022-10-08T23:45:31.596Z,4.07
2022-10-08T23:50:39.128Z,3.10
2022-10-08T23:55:46.699Z,4.52
